KNQX/NQX METAR and TAF weather

Enter ICAO airport designator
Station Type Date Time Source
KNQX METAR 2020/10/29 16:53 UTC NOAA

KNQX 291653Z 18010KT 10SM FEW024 FEW050 32/26 A2996 RMK AO2 SLP142 T03220261


Station Type Date Time Source
KNQX Decoded METAR 2020/10/29 16:53 UTC NOAA

KEY WEST NAVAL AIR STATION, FL, United States (KNQX) 24-35N 81-41W 6M
Oct 29, 2020 - 12:53 PM EDT / 2020.10.29 1653 UTC
Wind: from the S (180 degrees) at 12 MPH (10 KT):0
Visibility: 10 mile(s):0
Sky conditions: mostly clear
Temperature: 90.0 F (32.2 C)
Heat index: 106.0 F (41.1 C):1
Dew Point: 79.0 F (26.1 C)
Relative Humidity: 70%
Pressure (altimeter): 29.96 in. Hg (1014 hPa)
ob: KNQX 291653Z 18010KT 10SM FEW024 FEW050 32/26 A2996 RMK AO2 SLP142 T03220261
cycle: 17

Station Type Date Time Source
KNQX TAF 2020/10/29 15:46 UTC NOAA

TAF KNQX 2915/3015 15007KT 9999 VCSH SCT025 SCT060 QNH2988INS
FM292300 VRB05KT 9999 SCT024 SCT250 QNH2989INS
FM300700 VRB05KT 9999 VCSH SCT022 QNH2994INS T32/2919Z T28/3010Z FN20027

Example: see airport list